createdAt,value
2022-11-03T00:01:46.573Z,99251.81
2022-11-03T00:04:15.510Z,99250.19
2022-11-03T00:06:43.150Z,99246.94
2022-11-03T00:09:12.518Z,99242.53
2022-11-03T00:11:40.882Z,99238.41
2022-11-03T00:14:09.304Z,99237.22
2022-11-03T00:16:36.478Z,99235.59
2022-11-03T00:19:03.398Z,99236.78
2022-11-03T00:21:30.518Z,99222.38
2022-11-03T00:23:57.094Z,99228.94
2022-11-03T00:26:28.145Z,99222.13
2022-11-03T00:28:56.977Z,99221.53
2022-11-03T00:31:26.354Z,99229.31
2022-11-03T00:33:54.174Z,99220.72
2022-11-03T00:36:23.183Z,99219.53
2022-11-03T00:38:49.822Z,99219.06
2022-11-03T00:41:17.174Z,99220.78
2022-11-03T00:43:43.801Z,99210.41
2022-11-03T00:46:10.657Z,99213.25
2022-11-03T00:48:40.523Z,99206.41
2022-11-03T00:51:19.017Z,99204.78
2022-11-03T00:53:53.961Z,99204.78
2022-11-03T00:56:27.635Z,99199.97
2022-11-03T00:58:55.251Z,99207.03
2022-11-03T01:01:24.321Z,99211.06
2022-11-03T01:04:12.432Z,99203.56
2022-11-03T01:06:50.673Z,99196.00
2022-11-03T01:09:28.888Z,99193.03
2022-11-03T01:12:00.172Z,99183.47
2022-11-03T01:14:33.373Z,99187.84
2022-11-03T01:17:00.230Z,99184.66
2022-11-03T01:19:26.941Z,99174.06
2022-11-03T01:21:54.195Z,99178.28
2022-11-03T01:24:21.740Z,99180.88
2022-11-03T01:26:48.682Z,99181.84
2022-11-03T01:29:15.452Z,99179.66
2022-11-03T01:31:42.202Z,99171.00
2022-11-03T01:34:20.846Z,99163.53
2022-11-03T01:36:47.926Z,99169.13
2022-11-03T01:39:17.655Z,99158.13
2022-11-03T01:41:46.640Z,99156.69
2022-11-03T01:44:13.046Z,99161.63
2022-11-03T01:47:12.074Z,99150.97
2022-11-03T01:49:54.825Z,99142.31
2022-11-03T01:52:27.868Z,99148.84
2022-11-03T01:55:04.945Z,99144.84
2022-11-03T01:57:37.807Z,99141.88
2022-11-03T02:00:06.594Z,99138.13
2022-11-03T02:02:35.805Z,99137.69
2022-11-03T02:05:04.792Z,99124.09
2022-11-03T02:07:38.358Z,99131.28
2022-11-03T02:10:06.092Z,99125.44
2022-11-03T02:12:33.769Z,99120.81
2022-11-03T02:15:08.183Z,99116.44
2022-11-03T02:17:36.408Z,99111.09
2022-11-03T02:20:12.311Z,99108.84
2022-11-03T02:22:50.803Z,99106.78
2022-11-03T02:25:43.557Z,99098.72
2022-11-03T02:28:12.199Z,99096.38
2022-11-03T02:31:08.457Z,99091.81
2022-11-03T02:33:59.701Z,99086.63
2022-11-03T02:36:44.902Z,99086.00
2022-11-03T02:39:34.820Z,99075.00
2022-11-03T02:42:04.548Z,99067.44
2022-11-03T02:44:33.413Z,99073.72
2022-11-03T02:47:04.089Z,99074.97
2022-11-03T02:49:30.599Z,99080.25
2022-11-03T02:52:05.282Z,99069.34
2022-11-03T02:54:47.808Z,99064.38
2022-11-03T02:57:25.783Z,99057.69
2022-11-03T03:00:12.902Z,99060.00
2022-11-03T03:02:43.300Z,99063.41
2022-11-03T03:05:12.154Z,99060.22
2022-11-03T03:07:44.536Z,99051.81
2022-11-03T03:10:23.786Z,99049.66
2022-11-03T03:12:54.583Z,99039.84
2022-11-03T03:15:28.729Z,99040.59
2022-11-03T03:18:07.834Z,99046.91
2022-11-03T03:20:39.852Z,99046.69
2022-11-03T03:23:16.866Z,99037.88
2022-11-03T03:25:49.748Z,99038.06
2022-11-03T03:28:32.482Z,99028.09
2022-11-03T03:31:11.864Z,99030.06
2022-11-03T03:33:42.109Z,99026.56
2022-11-03T03:36:15.796Z,99021.00
2022-11-03T03:38:49.435Z,99015.28
2022-11-03T03:41:22.005Z,99013.38
2022-11-03T03:43:55.659Z,99009.53
2022-11-03T03:46:25.491Z,99001.13
2022-11-03T03:48:51.979Z,98996.16
2022-11-03T03:51:22.764Z,98999.31
2022-11-03T03:53:53.491Z,98996.88
2022-11-03T03:56:43.526Z,98996.88
2022-11-03T03:59:10.032Z,98998.50
2022-11-03T04:01:36.716Z,98994.03
2022-11-03T04:04:03.423Z,98995.66
2022-11-03T04:06:30.175Z,98999.69
2022-11-03T04:08:56.732Z,98988.53
2022-11-03T04:11:41.688Z,98989.53
2022-11-03T04:14:28.506Z,98988.13
2022-11-03T04:17:13.889Z,98981.00
2022-11-03T04:19:58.879Z,98986.09
2022-11-03T04:22:30.969Z,98984.06
2022-11-03T04:24:58.467Z,98980.06
2022-11-03T04:27:24.869Z,98982.44
2022-11-03T04:29:52.695Z,98981.84
2022-11-03T04:32:19.129Z,98979.69
2022-11-03T04:34:47.422Z,98971.66
2022-11-03T04:37:15.071Z,98962.28
2022-11-03T04:39:41.978Z,98962.28
2022-11-03T04:42:20.723Z,98951.13
2022-11-03T04:44:49.012Z,98958.13
2022-11-03T04:47:17.664Z,98954.88
2022-11-03T04:49:46.806Z,98955.06
2022-11-03T04:52:16.980Z,98960.88
2022-11-03T04:54:44.894Z,98952.47
2022-11-03T04:57:18.877Z,98947.13
2022-11-03T04:59:49.612Z,98941.56
2022-11-03T05:02:22.024Z,98935.28
2022-11-03T05:04:48.617Z,98936.66
2022-11-03T05:07:35.906Z,98934.06
2022-11-03T05:10:04.454Z,98930.88
2022-11-03T05:12:31.100Z,98929.84
2022-11-03T05:14:58.917Z,98928.88
2022-11-03T05:17:27.718Z,98928.50
2022-11-03T05:20:02.133Z,98920.00
2022-11-03T05:22:34.234Z,98917.41
2022-11-03T05:25:03.749Z,98915.88
2022-11-03T05:27:30.504Z,98910.50
2022-11-03T05:30:00.970Z,98907.91
2022-11-03T05:32:33.073Z,98901.13
2022-11-03T05:34:59.724Z,98886.81
2022-11-03T05:37:32.700Z,98886.06
2022-11-03T05:40:22.750Z,98878.84
2022-11-03T05:42:58.998Z,98876.81
2022-11-03T05:45:36.632Z,98869.44
2022-11-03T05:48:14.024Z,98867.47
2022-11-03T05:50:42.111Z,98878.00
2022-11-03T05:53:23.819Z,98872.44
2022-11-03T05:55:50.585Z,98866.28
2022-11-03T05:58:23.106Z,98868.06
2022-11-03T06:00:50.009Z,98865.47
2022-11-03T06:03:21.365Z,98858.50
2022-11-03T06:05:47.893Z,98863.09
2022-11-03T06:08:25.510Z,98855.81
2022-11-03T06:10:53.671Z,98855.81
2022-11-03T06:13:38.502Z,98859.34
2022-11-03T06:16:31.829Z,98860.72
2022-11-03T06:19:01.826Z,98871.28
2022-11-03T06:21:28.612Z,98879.81
2022-11-03T06:23:55.167Z,98872.78
2022-11-03T06:26:25.243Z,98878.88
2022-11-03T06:28:51.817Z,98876.78
2022-11-03T06:31:23.162Z,98872.38
2022-11-03T06:33:51.780Z,98872.88
2022-11-03T06:36:37.260Z,98870.00
2022-11-03T06:39:13.622Z,98867.25
2022-11-03T06:41:40.062Z,98863.53
2022-11-03T06:44:28.397Z,98858.47
2022-11-03T06:46:59.993Z,98858.16
2022-11-03T06:49:33.145Z,98861.00
2022-11-03T06:52:11.896Z,98861.41
2022-11-03T06:54:40.332Z,98870.47
2022-11-03T06:57:14.344Z,98863.84
2022-11-03T06:59:40.810Z,98861.75
2022-11-03T07:02:37.537Z,98858.97
2022-11-03T07:05:17.740Z,98859.34
2022-11-03T07:07:44.178Z,98850.94
2022-11-03T07:10:11.025Z,98851.75
2022-11-03T07:12:37.692Z,98850.22
2022-11-03T07:15:16.375Z,98852.00
2022-11-03T07:17:42.748Z,98844.91
2022-11-03T07:20:16.944Z,98841.81
2022-11-03T07:22:45.770Z,98835.13
2022-11-03T07:25:21.043Z,98834.25
2022-11-03T07:27:55.030Z,98841.50
2022-11-03T07:30:33.776Z,98823.41
2022-11-03T07:33:12.549Z,98825.84
2022-11-03T07:38:33.309Z,98813.06
2022-11-03T07:41:00.244Z,98805.97
2022-11-03T07:43:35.974Z,98804.19
2022-11-03T07:46:04.041Z,98802.00
2022-11-03T07:48:39.154Z,98797.44
2022-11-03T07:51:17.664Z,98791.16
2022-11-03T07:53:47.653Z,98778.00
2022-11-03T07:56:20.274Z,98775.75
2022-11-03T07:58:49.741Z,98778.84
2022-11-03T08:01:37.126Z,98774.50
2022-11-03T08:04:06.706Z,98766.38
2022-11-03T08:06:33.414Z,98758.03
2022-11-03T08:09:00.026Z,98739.44
2022-11-03T08:11:29.264Z,98733.25
2022-11-03T08:13:56.959Z,98727.88
2022-11-03T08:16:24.167Z,98724.56
2022-11-03T08:18:50.861Z,98720.47
2022-11-03T08:21:17.460Z,98723.41
2022-11-03T08:23:47.300Z,98709.78
2022-11-03T08:26:14.761Z,98700.28
2022-11-03T08:28:41.213Z,98696.88
2022-11-03T08:31:12.287Z,98705.47
2022-11-03T08:33:40.050Z,98696.88
2022-11-03T08:36:11.868Z,98692.84
2022-11-03T08:38:38.888Z,98692.66
2022-11-03T08:41:05.600Z,98684.47
2022-11-03T08:43:32.381Z,98683.97
2022-11-03T08:46:08.362Z,98675.63
2022-11-03T08:48:39.998Z,98663.38
2022-11-03T08:51:08.364Z,98660.00
2022-11-03T08:53:35.392Z,98648.47
2022-11-03T08:56:02.695Z,98643.25
2022-11-03T08:58:29.343Z,98631.84
2022-11-03T09:00:55.861Z,98634.69
2022-11-03T09:03:22.645Z,98634.34
2022-11-03T09:05:49.933Z,98622.91
2022-11-03T09:11:03.499Z,98617.81
2022-11-03T09:13:30.054Z,98619.69
2022-11-03T09:15:56.722Z,98609.25
2022-11-03T09:18:23.258Z,98613.09
2022-11-03T09:20:50.305Z,98607.69
2022-11-03T09:23:19.269Z,98602.28
2022-11-03T09:25:45.811Z,98595.19
2022-11-03T09:28:14.690Z,98593.88
2022-11-03T09:30:41.237Z,98589.53
2022-11-03T09:33:07.623Z,98584.47
2022-11-03T09:35:34.126Z,98573.84
2022-11-03T09:38:00.852Z,98560.06
2022-11-03T09:40:27.477Z,98548.47
2022-11-03T09:42:54.191Z,98546.41
2022-11-03T09:45:20.702Z,98539.66
2022-11-03T09:47:47.311Z,98544.06
2022-11-03T09:50:17.357Z,98546.56
2022-11-03T09:52:50.325Z,98549.81
2022-11-03T09:55:24.101Z,98558.59
2022-11-03T09:57:52.918Z,98553.53
2022-11-03T10:00:21.324Z,98548.53
2022-11-03T10:02:49.619Z,98552.31
2022-11-03T10:05:25.349Z,98542.44
2022-11-03T10:07:58.145Z,98536.94
2022-11-03T10:10:25.188Z,98530.91
2022-11-03T10:12:55.893Z,98527.94
2022-11-03T10:15:24.812Z,98520.19
2022-11-03T10:17:52.146Z,98507.84
2022-11-03T10:20:21.520Z,98512.09
2022-11-03T10:22:53.165Z,98498.19
2022-11-03T10:25:42.504Z,98483.97
2022-11-03T10:28:18.113Z,98473.22
2022-11-03T10:31:11.797Z,98467.44
2022-11-03T10:33:41.349Z,98465.09
2022-11-03T10:36:17.100Z,98471.13
2022-11-03T10:38:44.379Z,98474.03
2022-11-03T10:41:13.903Z,98475.31
2022-11-03T10:43:42.304Z,98471.88
2022-11-03T10:46:50.167Z,98477.41
2022-11-03T10:49:12.495Z,98460.03
2022-11-03T10:51:39.776Z,98454.22
2022-11-03T10:54:11.659Z,98465.50
2022-11-03T10:56:38.666Z,98477.78
2022-11-03T10:59:05.277Z,98467.81
2022-11-03T11:01:32.114Z,98457.84
2022-11-03T11:03:59.091Z,98443.16
2022-11-03T11:06:29.884Z,98444.75
2022-11-03T11:09:04.138Z,98436.84
2022-11-03T11:11:30.942Z,98431.63
2022-11-03T11:14:23.956Z,98421.41
2022-11-03T11:16:53.346Z,98424.56
2022-11-03T11:19:22.466Z,98421.94
2022-11-03T11:21:49.530Z,98415.59
2022-11-03T11:24:44.525Z,98400.91
2022-11-03T11:27:32.766Z,98402.72
2022-11-03T11:30:00.509Z,98401.94
2022-11-03T11:32:39.246Z,98402.44
2022-11-03T11:35:26.222Z,98396.41
2022-11-03T11:37:54.310Z,98386.63
2022-11-03T11:40:23.609Z,98382.66
2022-11-03T11:43:13.208Z,98370.59
2022-11-03T11:46:17.210Z,98362.63
2022-11-03T11:48:43.911Z,98348.44
2022-11-03T11:51:12.265Z,98338.94
2022-11-03T11:53:44.849Z,98336.78
2022-11-03T11:56:13.970Z,98338.34
2022-11-03T11:58:49.402Z,98336.47
2022-11-03T12:01:30.816Z,98339.88
2022-11-03T12:04:00.677Z,98344.41
2022-11-03T12:06:39.025Z,98335.47
2022-11-03T12:09:23.512Z,98338.09
2022-11-03T12:11:56.443Z,98321.53
2022-11-03T12:14:34.355Z,98325.75
2022-11-03T12:17:16.075Z,98315.75
2022-11-03T12:19:52.614Z,98306.50
2022-11-03T12:22:26.179Z,98296.44
2022-11-03T12:25:00.863Z,98290.13
2022-11-03T12:27:27.320Z,98286.47
2022-11-03T12:29:55.813Z,98277.84
2022-11-03T12:32:33.936Z,98267.28
2022-11-03T12:35:06.548Z,98266.75
2022-11-03T12:37:33.044Z,98250.72
2022-11-03T12:39:59.617Z,98258.09
2022-11-03T12:42:28.200Z,98253.59
2022-11-03T12:44:55.977Z,98244.69
2022-11-03T12:47:22.687Z,98236.28
2022-11-03T12:49:49.533Z,98237.88
2022-11-03T12:52:22.059Z,98239.72
2022-11-03T12:54:49.130Z,98238.94
2022-11-03T12:57:15.939Z,98246.28
2022-11-03T12:59:42.773Z,98243.63
2022-11-03T13:02:10.862Z,98240.75
2022-11-03T13:04:38.190Z,98224.44
2022-11-03T13:07:04.992Z,98213.94
2022-11-03T13:09:32.132Z,98205.25
2022-11-03T13:12:17.269Z,98205.50
2022-11-03T13:14:46.148Z,98208.38
2022-11-03T13:17:14.456Z,98202.09
2022-11-03T13:19:41.112Z,98207.09
2022-11-03T13:22:07.583Z,98182.06
2022-11-03T13:24:34.066Z,98185.50
2022-11-03T13:27:00.529Z,98173.41
2022-11-03T13:29:31.064Z,98166.53
2022-11-03T13:32:00.780Z,98163.13
2022-11-03T13:34:27.200Z,98177.09
2022-11-03T13:36:53.830Z,98163.97
2022-11-03T13:39:21.184Z,98157.66
2022-11-03T13:41:48.037Z,98150.53
2022-11-03T13:44:14.617Z,98157.13
2022-11-03T13:46:41.110Z,98152.13
2022-11-03T13:51:54.237Z,98143.47
2022-11-03T13:59:53.999Z,98145.91
2022-11-03T14:05:11.240Z,98139.59
2022-11-03T14:07:38.147Z,98135.13
2022-11-03T14:10:08.120Z,98129.06
2022-11-03T14:12:36.170Z,98121.75
2022-11-03T14:15:06.917Z,98107.81
2022-11-03T14:17:33.412Z,98114.66
2022-11-03T14:20:04.145Z,98108.38
2022-11-03T14:22:31.958Z,98102.84
2022-11-03T14:24:59.536Z,98092.88
2022-11-03T14:27:26.357Z,98089.47
2022-11-03T14:29:53.531Z,98086.06
2022-11-03T14:32:21.352Z,98089.44
2022-11-03T14:34:51.213Z,98081.31
2022-11-03T14:37:18.177Z,98087.09
2022-11-03T14:39:46.339Z,98086.81
2022-11-03T14:42:17.251Z,98087.63
2022-11-03T14:44:46.080Z,98086.34
2022-11-03T14:47:15.849Z,98081.88
2022-11-03T14:49:42.370Z,98075.31
2022-11-03T14:52:09.039Z,98081.59
2022-11-03T14:54:39.117Z,98073.47
2022-11-03T14:57:06.023Z,98067.97
2022-11-03T14:59:32.513Z,98057.47
2022-11-03T15:01:59.639Z,98056.91
2022-11-03T15:04:26.871Z,98046.66
2022-11-03T15:06:54.379Z,98045.38
2022-11-03T15:09:20.771Z,98038.28
2022-11-03T15:11:47.337Z,98028.56
2022-11-03T15:14:14.528Z,98024.91
2022-11-03T15:16:41.148Z,98025.69
2022-11-03T15:19:08.865Z,98020.69
2022-11-03T15:21:35.599Z,98004.94
2022-11-03T15:26:49.370Z,97998.91
2022-11-03T15:29:15.997Z,97999.94
2022-11-03T15:31:47.472Z,97985.25
2022-11-03T15:34:15.214Z,97984.47
2022-11-03T15:36:41.734Z,97978.16
2022-11-03T15:39:08.228Z,97968.47
2022-11-03T15:41:34.701Z,97963.75
2022-11-03T15:44:01.434Z,97959.53
2022-11-03T15:46:31.060Z,97960.06
2022-11-03T15:48:57.932Z,97947.97
2022-11-03T15:51:25.487Z,97944.03
2022-11-03T15:53:57.914Z,97949.56
2022-11-03T15:56:26.483Z,97949.81
2022-11-03T15:58:54.292Z,97951.66
2022-11-03T16:01:21.471Z,97945.38
2022-11-03T16:03:48.222Z,97952.16
2022-11-03T16:06:14.872Z,97947.19
2022-11-03T16:08:41.560Z,97941.13
2022-11-03T16:11:09.176Z,97937.97
2022-11-03T16:13:37.744Z,97927.47
2022-11-03T16:16:04.772Z,97906.50
2022-11-03T16:18:31.472Z,97913.56
2022-11-03T16:21:01.343Z,97915.94
2022-11-03T16:23:30.586Z,97911.47
2022-11-03T16:26:05.193Z,97901.50
2022-11-03T16:28:31.943Z,97893.38
2022-11-03T16:30:58.771Z,97902.28
2022-11-03T16:33:25.458Z,97897.31
2022-11-03T16:35:52.675Z,97895.19
2022-11-03T16:38:19.295Z,97887.59
2022-11-03T16:40:47.874Z,97897.78
2022-11-03T16:43:14.412Z,97893.63
2022-11-03T16:45:40.897Z,97890.16
2022-11-03T16:48:12.703Z,97883.06
2022-11-03T16:50:41.542Z,97876.00
2022-11-03T16:53:11.138Z,97872.59
2022-11-03T16:55:37.909Z,97861.31
2022-11-03T16:58:04.435Z,97854.22
2022-11-03T17:00:31.291Z,97858.16
2022-11-03T17:02:59.747Z,97857.38
2022-11-03T17:05:27.073Z,97856.31
2022-11-03T17:07:54.410Z,97858.44
2022-11-03T17:10:22.346Z,97850.06
2022-11-03T17:12:49.818Z,97851.34
2022-11-03T17:15:17.341Z,97852.91
2022-11-03T17:17:44.264Z,97851.63
2022-11-03T17:20:12.157Z,97841.91
2022-11-03T17:22:39.127Z,97837.72
2022-11-03T17:25:07.959Z,97837.94
2022-11-03T17:27:42.003Z,97841.13
2022-11-03T17:30:31.986Z,97841.38
2022-11-03T17:33:05.398Z,97830.88
2022-11-03T17:35:41.936Z,97820.16
2022-11-03T17:38:15.394Z,97819.38
2022-11-03T17:40:44.363Z,97812.03
2022-11-03T17:43:31.252Z,97807.84
2022-11-03T17:45:57.734Z,97807.03
2022-11-03T17:48:24.279Z,97807.31
2022-11-03T17:50:53.648Z,97807.03
2022-11-03T17:53:23.359Z,97788.44
2022-11-03T17:56:08.740Z,97781.38
2022-11-03T17:58:43.210Z,97776.13
2022-11-03T18:01:15.184Z,97769.56
2022-11-03T18:03:41.956Z,97776.38
2022-11-03T18:06:18.959Z,97758.56
2022-11-03T18:08:49.184Z,97756.47
2022-11-03T18:11:41.029Z,97755.69
2022-11-03T18:14:07.507Z,97747.56
2022-11-03T18:16:34.564Z,97745.44
2022-11-03T18:19:01.055Z,97748.03
2022-11-03T18:21:29.756Z,97738.91
2022-11-03T18:23:56.251Z,97731.06
2022-11-03T18:26:25.610Z,97726.59
2022-11-03T18:28:52.481Z,97722.91
2022-11-03T18:31:34.495Z,97721.09
2022-11-03T18:34:09.760Z,97711.91
2022-11-03T18:36:37.959Z,97698.31
2022-11-03T18:39:04.644Z,97693.28
2022-11-03T18:41:39.168Z,97693.81
2022-11-03T18:44:29.181Z,97685.94
2022-11-03T18:46:56.207Z,97692.22
2022-11-03T18:49:24.719Z,97685.19
2022-11-03T18:52:00.917Z,97672.88
2022-11-03T18:54:30.644Z,97668.41
2022-11-03T18:56:57.634Z,97669.97
2022-11-03T18:59:31.728Z,97653.19
2022-11-03T19:01:58.221Z,97651.91
2022-11-03T19:04:24.819Z,97656.34
2022-11-03T19:06:52.849Z,97650.59
2022-11-03T19:09:22.621Z,97647.72
2022-11-03T19:11:50.232Z,97642.22
2022-11-03T19:14:23.714Z,97636.72
2022-11-03T19:17:21.306Z,97641.19
2022-11-03T19:19:39.282Z,97642.47
2022-11-03T19:22:11.876Z,97631.22
2022-11-03T19:24:38.544Z,97629.94
2022-11-03T19:27:06.606Z,97637.78
2022-11-03T19:29:38.432Z,97625.75
2022-11-03T19:32:05.893Z,97622.06
2022-11-03T19:34:35.231Z,97627.28
2022-11-03T19:37:01.742Z,97619.72
2022-11-03T19:39:37.074Z,97615.53
2022-11-03T19:42:36.798Z,97616.03
2022-11-03T19:45:10.804Z,97611.31
2022-11-03T19:47:47.879Z,97606.84
2022-11-03T19:50:23.221Z,97595.06
2022-11-03T19:52:50.254Z,97589.56
2022-11-03T19:55:19.358Z,97592.75
2022-11-03T19:57:45.855Z,97595.09
2022-11-03T20:00:17.404Z,97599.06
2022-11-03T20:02:44.983Z,97590.91
2022-11-03T20:05:15.124Z,97594.31
2022-11-03T20:07:43.453Z,97583.34
2022-11-03T20:10:17.847Z,97584.38
2022-11-03T20:12:45.285Z,97578.13
2022-11-03T20:15:16.336Z,97582.53
2022-11-03T20:17:44.552Z,97587.78
2022-11-03T20:20:20.086Z,97581.78
2022-11-03T20:22:49.770Z,97563.69
2022-11-03T20:25:20.936Z,97565.00
2022-11-03T20:27:47.774Z,97569.19
2022-11-03T20:30:17.221Z,97587.50
2022-11-03T20:32:46.000Z,97589.63
2022-11-03T20:35:23.127Z,97574.41
2022-11-03T20:37:53.136Z,97571.81
2022-11-03T20:40:22.540Z,97575.72
2022-11-03T20:42:51.676Z,97581.78
2022-11-03T20:45:20.527Z,97575.72
2022-11-03T20:47:48.434Z,97579.66
2022-11-03T20:50:16.729Z,97580.97
2022-11-03T20:52:44.384Z,97579.66
2022-11-03T20:55:24.984Z,97552.72
2022-11-03T20:57:54.738Z,97539.31
2022-11-03T21:00:27.174Z,97550.06
2022-11-03T21:02:55.480Z,97560.81
2022-11-03T21:05:27.582Z,97559.00
2022-11-03T21:07:55.630Z,97574.44
2022-11-03T21:10:23.633Z,97548.50
2022-11-03T21:12:57.670Z,97537.28
2022-11-03T21:16:03.618Z,97521.81
2022-11-03T21:18:48.806Z,97523.38
2022-11-03T21:21:20.809Z,97548.00
2022-11-03T21:23:47.715Z,97560.25
2022-11-03T21:26:14.150Z,97522.56
2022-11-03T21:28:41.305Z,97547.16
2022-11-03T21:31:13.869Z,97547.44
2022-11-03T21:33:40.362Z,97545.03
2022-11-03T21:36:07.209Z,97542.97
2022-11-03T21:38:33.668Z,97552.13
2022-11-03T21:41:20.073Z,97537.22
2022-11-03T21:44:05.664Z,97537.72
2022-11-03T21:46:32.135Z,97536.13
2022-11-03T21:49:17.084Z,97530.63
2022-11-03T21:51:43.511Z,97521.25
2022-11-03T21:54:09.899Z,97525.69
2022-11-03T21:56:36.265Z,97535.63
2022-11-03T21:59:02.788Z,97524.63
2022-11-03T22:01:29.282Z,97520.69
2022-11-03T22:03:58.215Z,97514.41
2022-11-03T22:06:24.575Z,97512.84
2022-11-03T22:08:52.351Z,97516.78
2022-11-03T22:11:21.598Z,97519.13
2022-11-03T22:13:59.433Z,97520.13
2022-11-03T22:16:42.347Z,97519.34
2022-11-03T22:19:38.468Z,97528.19
2022-11-03T22:22:29.253Z,97536.31
2022-11-03T22:25:14.317Z,97543.09
2022-11-03T22:27:41.578Z,97560.88
2022-11-03T22:30:27.338Z,97568.47
2022-11-03T22:32:55.855Z,97544.72
2022-11-03T22:35:42.436Z,97550.69
2022-11-03T22:38:14.535Z,97557.19
2022-11-03T22:41:01.141Z,97554.34
2022-11-03T22:43:46.152Z,97553.78
2022-11-03T22:46:14.599Z,97533.44
2022-11-03T22:48:41.558Z,97532.38
2022-11-03T22:51:13.328Z,97546.75
2022-11-03T22:53:58.881Z,97537.41
2022-11-03T22:56:27.314Z,97531.41
2022-11-03T22:58:54.185Z,97533.47
2022-11-03T23:01:23.366Z,97545.22
2022-11-03T23:03:50.263Z,97538.44
2022-11-03T23:06:21.805Z,97547.59
2022-11-03T23:08:49.653Z,97547.59
2022-11-03T23:11:18.874Z,97543.97
2022-11-03T23:13:53.877Z,97532.75
2022-11-03T23:16:23.073Z,97531.41
2022-11-03T23:19:08.094Z,97534.28
2022-11-03T23:21:37.483Z,97528.00
2022-11-03T23:24:23.099Z,97537.69
2022-11-03T23:26:49.876Z,97528.06
2022-11-03T23:29:16.959Z,97521.53
2022-11-03T23:31:44.597Z,97520.19
2022-11-03T23:34:12.454Z,97527.72
2022-11-03T23:36:39.362Z,97528.00
2022-11-03T23:39:06.381Z,97536.16
2022-11-03T23:41:33.342Z,97534.09
2022-11-03T23:43:59.872Z,97536.97
2022-11-03T23:46:46.954Z,97537.22
2022-11-03T23:49:14.405Z,97555.03
2022-11-03T23:51:41.917Z,97559.47
2022-11-03T23:54:10.387Z,97568.84
2022-11-03T23:56:58.506Z,97567.03
2022-11-03T23:59:26.401Z,97574.09
